Time;durP1;ratioP1;P1;durP2;ratioP2;P2;SDS_P1;SDS_P2;PMS_P1;PMS_P2;Temp;Humidity;BMP_temperature;BMP_pressure;BME280_temperature;BME280_humidity;BME280_pressure;Samples;Min_cycle;Max_cycle;Signal;HPM_P1;HPM_P2
2023/06/04 00:02:02;;;;;;;;;;;18.90;61.10;;;;;;5029623;28;857;-71
2023/06/04 00:04:28;;;;;;;;;;;18.90;61.10;;;;;;5028843;28;1350;-70
2023/06/04 00:06:54;;;;;;;;;;;18.90;61.10;;;;;;5028381;28;883;-70
2023/06/04 00:09:19;;;;;;;;;;;18.90;61.10;;;;;;5029882;28;1281;-70
2023/06/04 00:11:45;;;;;;;;;;;18.90;61.10;;;;;;5028129;28;2017;-70
2023/06/04 00:14:11;;;;;;;;;;;18.90;61.10;;;;;;5030736;28;1248;-70
2023/06/04 00:16:36;;;;;;;;;;;18.90;61.20;;;;;;5031037;28;789;-70
2023/06/04 00:19:02;;;;;;;;;;;18.90;61.50;;;;;;5025912;28;1077;-70
2023/06/04 00:21:28;;;;;;;;;;;18.90;61.10;;;;;;5028211;28;856;-70
2023/06/04 00:23:53;;;;;;;;;;;19.00;61.30;;;;;;5027256;28;1631;-70
2023/06/04 00:26:19;;;;;;;;;;;19.00;61.20;;;;;;5028620;28;856;-70
2023/06/04 00:28:44;;;;;;;;;;;18.90;61.20;;;;;;5030119;28;1026;-70
2023/06/04 00:31:12;;;;;;;;;;;18.90;61.20;;;;;;5027566;28;1894;-70
2023/06/04 00:33:38;;;;;;;;;;;18.90;61.20;;;;;;5027953;28;1310;-70
2023/06/04 00:36:04;;;;;;;;;;;18.90;61.20;;;;;;5027487;28;871;-70
2023/06/04 00:38:29;;;;;;;;;;;18.90;61.20;;;;;;5029589;28;879;-70
2023/06/04 00:40:55;;;;;;;;;;;18.90;61.20;;;;;;5028948;28;1006;-70
2023/06/04 00:43:20;;;;;;;;;;;18.90;61.30;;;;;;5029091;28;1425;-70
2023/06/04 00:45:46;;;;;;;;;;;18.90;61.30;;;;;;5028214;28;1259;-70
2023/06/04 00:48:11;;;;;;;;;;;19.00;61.30;;;;;;5027954;28;788;-70
2023/06/04 00:50:38;;;;;;;;;;;18.90;61.30;;;;;;5026539;28;1953;-70
2023/06/04 00:53:04;;;;;;;;;;;18.90;61.30;;;;;;5029690;28;1238;-70
2023/06/04 00:55:31;;;;;;;;;;;18.90;61.30;;;;;;5029385;28;848;-70
2023/06/04 00:57:57;;;;;;;;;;;18.90;61.30;;;;;;5026934;28;812;-70
2023/06/04 01:00:22;;;;;;;;;;;18.90;61.30;;;;;;5012407;28;1120;-70
2023/06/04 01:02:50;;;;;;;;;;;18.90;61.40;;;;;;5029676;28;1343;-70
2023/06/04 01:05:31;;;;;;;;;;;18.90;61.40;;;;;;5029658;28;781;-70
2023/06/04 01:07:57;;;;;;;;;;;18.90;61.40;;;;;;5029537;28;940;-70
2023/06/04 01:10:22;;;;;;;;;;;18.90;61.40;;;;;;5028306;28;1973;-70
2023/06/04 01:12:48;;;;;;;;;;;18.90;61.40;;;;;;5030044;28;1286;-70
2023/06/04 01:15:13;;;;;;;;;;;18.90;61.40;;;;;;5027292;28;1046;-70
2023/06/04 01:17:40;;;;;;;;;;;19.00;61.50;;;;;;5027580;28;908;-70
2023/06/04 01:20:14;;;;;;;;;;;18.90;61.50;;;;;;5026958;28;920;-70
2023/06/04 01:22:41;;;;;;;;;;;18.90;61.50;;;;;;5006166;28;1485;-70
2023/06/04 01:25:27;;;;;;;;;;;18.90;61.50;;;;;;5025124;28;821;-70
2023/06/04 01:27:55;;;;;;;;;;;18.90;61.50;;;;;;5028109;28;1125;-71
2023/06/04 01:30:23;;;;;;;;;;;18.90;61.50;;;;;;5027130;28;1993;-70
2023/06/04 01:32:48;;;;;;;;;;;18.90;61.50;;;;;;5028612;28;1273;-70
2023/06/04 01:35:14;;;;;;;;;;;18.90;61.60;;;;;;5027616;28;1386;-71
2023/06/04 01:37:39;;;;;;;;;;;18.90;61.60;;;;;;5011969;28;1195;-70
2023/06/04 01:40:05;;;;;;;;;;;18.90;61.60;;;;;;5027217;28;1014;-70
2023/06/04 01:42:31;;;;;;;;;;;18.90;61.60;;;;;;5027583;28;1385;-70
2023/06/04 01:44:56;;;;;;;;;;;18.90;61.60;;;;;;5026681;28;880;-70
2023/06/04 01:47:22;;;;;;;;;;;18.90;61.60;;;;;;5028438;28;983;-70
2023/06/04 01:49:47;;;;;;;;;;;18.90;61.60;;;;;;5025712;28;786;-70
2023/06/04 01:52:13;;;;;;;;;;;18.90;61.60;;;;;;5025079;28;1910;-70
2023/06/04 01:54:38;;;;;;;;;;;18.90;61.60;;;;;;5028960;28;1249;-70
2023/06/04 01:57:05;;;;;;;;;;;18.90;61.60;;;;;;5028055;28;797;-70
2023/06/04 01:59:31;;;;;;;;;;;18.90;61.60;;;;;;5025958;28;1555;-70
2023/06/04 02:01:57;;;;;;;;;;;18.90;61.70;;;;;;5027251;28;871;-70
2023/06/04 02:04:23;;;;;;;;;;;18.90;61.70;;;;;;5028192;28;1283;-71
2023/06/04 02:06:50;;;;;;;;;;;18.90;61.70;;;;;;5026695;28;842;-70
2023/06/04 02:09:15;;;;;;;;;;;18.90;61.70;;;;;;5027738;28;876;-70
2023/06/04 02:11:41;;;;;;;;;;;18.90;61.70;;;;;;5027587;28;1906;-71
2023/06/04 02:14:06;;;;;;;;;;;18.90;61.80;;;;;;5027405;28;1363;-70
2023/06/04 02:16:32;;;;;;;;;;;18.90;61.70;;;;;;5026597;28;863;-71
2023/06/04 02:18:58;;;;;;;;;;;18.90;61.70;;;;;;5029039;28;851;-71
2023/06/04 02:21:24;;;;;;;;;;;18.90;61.70;;;;;;5029082;28;856;-70
2023/06/04 02:23:50;;;;;;;;;;;18.90;61.80;;;;;;5027994;28;1266;-70
2023/06/04 02:26:15;;;;;;;;;;;18.90;61.80;;;;;;5028652;28;930;-70
2023/06/04 02:28:41;;;;;;;;;;;18.90;61.80;;;;;;5024875;28;899;-70
2023/06/04 02:31:06;;;;;;;;;;;18.90;61.80;;;;;;5024527;28;1907;-70
2023/06/04 02:33:32;;;;;;;;;;;18.90;61.80;;;;;;5026815;28;1374;-70
2023/06/04 02:35:57;;;;;;;;;;;18.90;61.80;;;;;;5028182;28;871;-70
2023/06/04 02:38:23;;;;;;;;;;;18.90;61.90;;;;;;5027698;28;1052;-70
2023/06/04 02:40:48;;;;;;;;;;;18.90;61.90;;;;;;5025603;28;911;-70
2023/06/04 02:43:15;;;;;;;;;;;18.90;61.90;;;;;;5028806;28;1398;-70
2023/06/04 02:45:40;;;;;;;;;;;18.90;61.90;;;;;;5026880;28;831;-70
2023/06/04 02:48:06;;;;;;;;;;;18.90;62.00;;;;;;5028061;28;1605;-70
2023/06/04 02:50:31;;;;;;;;;;;18.90;61.90;;;;;;5026292;28;1914;-70
2023/06/04 02:52:57;;;;;;;;;;;18.90;61.90;;;;;;5029967;28;1334;-70
2023/06/04 02:55:22;;;;;;;;;;;18.90;62.00;;;;;;5031723;28;828;-70
2023/06/04 02:57:48;;;;;;;;;;;18.90;62.00;;;;;;5029445;28;1014;-70
2023/06/04 03:00:14;;;;;;;;;;;18.90;61.90;;;;;;5027304;28;811;-70
2023/06/04 03:02:40;;;;;;;;;;;18.90;62.00;;;;;;5028877;28;1267;-70
2023/06/04 03:05:05;;;;;;;;;;;18.90;62.00;;;;;;5028403;28;966;-70
2023/06/04 03:07:32;;;;;;;;;;;18.90;62.00;;;;;;5027786;28;994;-70
2023/06/04 03:09:57;;;;;;;;;;;18.90;62.00;;;;;;5029200;28;841;-70
2023/06/04 03:12:23;;;;;;;;;;;18.90;62.00;;;;;;5031316;28;1902;-70
2023/06/04 03:14:48;;;;;;;;;;;18.90;62.00;;;;;;5031686;28;852;-70
2023/06/04 03:17:14;;;;;;;;;;;18.90;62.10;;;;;;5024992;28;948;-70
2023/06/04 03:19:40;;;;;;;;;;;18.90;62.00;;;;;;5030359;28;852;-70
2023/06/04 03:22:05;;;;;;;;;;;18.90;62.00;;;;;;5027822;28;857;-69
2023/06/04 03:24:34;;;;;;;;;;;18.90;62.10;;;;;;5029447;28;1176;-70
2023/06/04 03:27:00;;;;;;;;;;;18.90;62.10;;;;;;5029342;28;832;-70
2023/06/04 03:29:26;;;;;;;;;;;18.90;62.10;;;;;;5030885;28;840;-70
2023/06/04 03:31:52;;;;;;;;;;;18.90;62.10;;;;;;5029759;28;1973;-71
2023/06/04 03:34:17;;;;;;;;;;;18.90;62.10;;;;;;5029700;28;1418;-70
2023/06/04 03:36:43;;;;;;;;;;;18.90;62.10;;;;;;5030460;28;886;-71
2023/06/04 03:39:08;;;;;;;;;;;18.90;62.10;;;;;;5025769;28;864;-70
2023/06/04 03:41:34;;;;;;;;;;;18.90;62.20;;;;;;5028608;28;1326;-70
2023/06/04 03:43:59;;;;;;;;;;;18.90;62.10;;;;;;5029874;28;1616;-70
2023/06/04 03:46:26;;;;;;;;;;;18.90;62.10;;;;;;5027830;28;866;-71
2023/06/04 03:48:52;;;;;;;;;;;18.90;62.20;;;;;;5028200;28;866;-71
2023/06/04 03:51:17;;;;;;;;;;;18.90;62.20;;;;;;5030105;28;2342;-71
2023/06/04 03:53:42;;;;;;;;;;;18.90;62.20;;;;;;5030370;28;1271;-71
2023/06/04 03:56:08;;;;;;;;;;;18.90;62.20;;;;;;5024562;28;1168;-70
2023/06/04 03:58:34;;;;;;;;;;;18.90;62.20;;;;;;5030332;28;1025;-71
2023/06/04 04:01:01;;;;;;;;;;;18.90;62.20;;;;;;5030359;28;1082;-71
2023/06/04 04:03:30;;;;;;;;;;;18.90;62.20;;;;;;5027865;28;1385;-71
2023/06/04 04:05:57;;;;;;;;;;;18.90;62.20;;;;;;5030405;28;919;-71
2023/06/04 04:08:23;;;;;;;;;;;18.90;62.20;;;;;;5029254;28;761;-72
2023/06/04 04:10:48;;;;;;;;;;;18.90;62.20;;;;;;5028620;28;1975;-71
2023/06/04 04:13:14;;;;;;;;;;;18.90;62.20;;;;;;5029442;28;1279;-71
2023/06/04 04:15:39;;;;;;;;;;;18.90;62.30;;;;;;5027753;28;876;-71
2023/06/04 04:18:08;;;;;;;;;;;18.90;62.30;;;;;;5027623;28;905;-71
2023/06/04 04:20:33;;;;;;;;;;;18.90;62.30;;;;;;5026523;28;835;-71
2023/06/04 04:22:58;;;;;;;;;;;18.90;62.30;;;;;;5029688;28;1255;-71
2023/06/04 04:25:24;;;;;;;;;;;18.90;62.30;;;;;;5029827;28;778;-71
2023/06/04 04:27:49;;;;;;;;;;;18.90;62.30;;;;;;5029921;28;841;-71
2023/06/04 04:30:16;;;;;;;;;;;18.90;62.30;;;;;;5030155;28;1910;-71
2023/06/04 04:32:48;;;;;;;;;;;18.90;62.30;;;;;;5030316;28;1264;-71
2023/06/04 04:35:14;;;;;;;;;;;18.90;62.30;;;;;;5027802;28;1458;-71
2023/06/04 04:37:40;;;;;;;;;;;18.90;62.40;;;;;;5029464;28;910;-71
2023/06/04 04:40:09;;;;;;;;;;;18.90;62.30;;;;;;5029279;28;837;-71
2023/06/04 04:42:35;;;;;;;;;;;18.90;62.40;;;;;;5028410;28;1388;-71
2023/06/04 04:45:00;;;;;;;;;;;18.90;62.40;;;;;;5025356;28;1026;-71
2023/06/04 04:47:26;;;;;;;;;;;18.90;62.40;;;;;;5028466;28;850;-71
2023/06/04 04:49:51;;;;;;;;;;;18.90;62.40;;;;;;5029993;28;887;-71
2023/06/04 04:52:17;;;;;;;;;;;18.90;62.40;;;;;;5030435;28;1964;-71
2023/06/04 04:54:42;;;;;;;;;;;18.90;62.40;;;;;;5028189;28;1279;-71
2023/06/04 04:57:07;;;;;;;;;;;18.90;62.40;;;;;;5029446;28;950;-71
2023/06/04 04:59:33;;;;;;;;;;;18.90;62.40;;;;;;5029894;28;1010;-71
2023/06/04 05:01:58;;;;;;;;;;;18.90;62.40;;;;;;5027981;28;871;-71
2023/06/04 05:04:24;;;;;;;;;;;18.90;62.40;;;;;;5026870;28;1350;-71
2023/06/04 05:06:49;;;;;;;;;;;18.90;62.50;;;;;;5029094;28;957;-71
2023/06/04 05:09:15;;;;;;;;;;;18.90;62.40;;;;;;5028437;28;849;-71
2023/06/04 05:11:41;;;;;;;;;;;18.90;62.40;;;;;;5027269;28;1923;-71
2023/06/04 05:14:07;;;;;;;;;;;18.90;62.50;;;;;;5028956;28;1276;-71
2023/06/04 05:16:35;;;;;;;;;;;18.90;62.50;;;;;;5027608;28;860;-71
2023/06/04 05:19:01;;;;;;;;;;;18.90;62.50;;;;;;5027268;28;920;-71
2023/06/04 05:21:28;;;;;;;;;;;18.90;62.50;;;;;;5030686;28;879;-71
2023/06/04 05:23:54;;;;;;;;;;;18.90;62.50;;;;;;5033314;28;1169;-71
2023/06/04 05:26:23;;;;;;;;;;;18.90;62.50;;;;;;5033203;28;820;-71
2023/06/04 05:28:51;;;;;;;;;;;18.90;62.50;;;;;;5033295;28;852;-71
2023/06/04 05:31:18;;;;;;;;;;;18.90;62.50;;;;;;5033053;28;1898;-71
2023/06/04 05:33:43;;;;;;;;;;;18.90;62.50;;;;;;5032026;28;1294;-71
2023/06/04 05:36:09;;;;;;;;;;;18.90;62.50;;;;;;5033032;28;828;-71
2023/06/04 05:38:35;;;;;;;;;;;18.90;62.60;;;;;;5033241;28;828;-71
2023/06/04 05:41:01;;;;;;;;;;;18.90;62.60;;;;;;5032952;28;911;-71
2023/06/04 05:43:26;;;;;;;;;;;18.90;62.60;;;;;;5031684;28;1440;-72
2023/06/04 05:45:52;;;;;;;;;;;18.90;62.60;;;;;;5032927;28;847;-71
2023/06/04 05:48:18;;;;;;;;;;;18.90;62.60;;;;;;5031868;28;880;-71
2023/06/04 05:50:43;;;;;;;;;;;18.90;62.60;;;;;;5031620;28;1956;-71
2023/06/04 05:53:09;;;;;;;;;;;18.90;62.60;;;;;;5032924;28;1231;-71
2023/06/04 05:55:34;;;;;;;;;;;18.90;62.60;;;;;;5033822;28;879;-72
2023/06/04 05:58:00;;;;;;;;;;;18.90;62.60;;;;;;5034358;28;864;-71
2023/06/04 06:00:25;;;;;;;;;;;18.90;62.60;;;;;;5031394;28;927;-70
2023/06/04 06:02:52;;;;;;;;;;;18.90;62.60;;;;;;5030383;28;1273;-70
2023/06/04 06:05:17;;;;;;;;;;;18.90;62.60;;;;;;5030417;28;902;-72
2023/06/04 06:07:43;;;;;;;;;;;18.90;61.10;;;;;;5028814;28;847;-71
2023/06/04 06:10:09;;;;;;;;;;;18.90;58.70;;;;;;5028861;28;896;-70
2023/06/04 06:12:35;;;;;;;;;;;18.90;58.20;;;;;;5030855;28;1894;-70
2023/06/04 06:15:00;;;;;;;;;;;18.90;57.80;;;;;;5029897;28;1174;-66
2023/06/04 06:17:26;;;;;;;;;;;18.90;57.70;;;;;;5022148;28;1870;-67
2023/06/04 06:19:51;;;;;;;;;;;18.90;57.40;;;;;;5026472;28;1441;-65
2023/06/04 06:22:17;;;;;;;;;;;18.90;57.80;;;;;;5027576;28;1477;-66
2023/06/04 06:24:42;;;;;;;;;;;18.90;58.00;;;;;;5028876;28;1275;-65
2023/06/04 06:27:08;;;;;;;;;;;18.90;58.10;;;;;;5024849;28;833;-68
2023/06/04 06:29:33;;;;;;;;;;;18.80;57.70;;;;;;5030347;28;888;-66
2023/06/04 06:31:59;;;;;;;;;;;18.90;57.70;;;;;;5032028;28;1902;-67
2023/06/04 06:34:24;;;;;;;;;;;18.90;58.40;;;;;;5032024;28;1347;-66
2023/06/04 06:36:50;;;;;;;;;;;18.90;57.90;;;;;;5028944;28;871;-66
2023/06/04 06:39:15;;;;;;;;;;;18.80;57.40;;;;;;5027982;28;856;-64
2023/06/04 06:41:41;;;;;;;;;;;18.80;57.10;;;;;;5031498;28;1374;-71
2023/06/04 06:44:07;;;;;;;;;;;18.80;57.00;;;;;;5024305;28;1379;-70
2023/06/04 06:46:32;;;;;;;;;;;18.80;56.70;;;;;;5031296;28;1057;-68
2023/06/04 06:48:58;;;;;;;;;;;18.80;56.70;;;;;;5031720;28;895;-69
2023/06/04 06:51:23;;;;;;;;;;;18.80;56.80;;;;;;5029431;28;1985;-70
2023/06/04 06:53:49;;;;;;;;;;;18.80;56.40;;;;;;5029503;28;1256;-68
2023/06/04 06:56:15;;;;;;;;;;;18.80;55.90;;;;;;5031954;28;842;-70
2023/06/04 06:58:40;;;;;;;;;;;18.80;55.40;;;;;;5031798;28;872;-69
2023/06/04 07:01:06;;;;;;;;;;;18.80;55.90;;;;;;5031298;28;2140;-69
2023/06/04 07:03:31;;;;;;;;;;;18.80;55.90;;;;;;5031193;28;1842;-71
2023/06/04 07:05:57;;;;;;;;;;;18.80;55.90;;;;;;5026139;28;1545;-69
2023/06/04 07:08:22;;;;;;;;;;;18.80;55.20;;;;;;5027378;28;1288;-69
2023/06/04 07:10:48;;;;;;;;;;;18.80;55.60;;;;;;5028193;28;1938;-69
2023/06/04 07:13:13;;;;;;;;;;;18.80;56.20;;;;;;5030572;28;1443;-70
2023/06/04 07:15:39;;;;;;;;;;;18.80;56.70;;;;;;5030344;28;1688;-70
2023/06/04 07:18:04;;;;;;;;;;;18.80;56.90;;;;;;5028950;28;1246;-69
2023/06/04 07:20:30;;;;;;;;;;;18.90;57.20;;;;;;5031083;28;1450;-69
2023/06/04 07:22:56;;;;;;;;;;;18.90;57.40;;;;;;5029746;28;1503;-69
2023/06/04 07:25:23;;;;;;;;;;;18.90;57.70;;;;;;5026122;28;1438;-70
2023/06/04 07:27:50;;;;;;;;;;;18.90;57.90;;;;;;5030311;28;1447;-70
2023/06/04 07:30:16;;;;;;;;;;;18.90;58.10;;;;;;5032005;28;1156;-69
2023/06/04 07:32:41;;;;;;;;;;;18.90;58.40;;;;;;5030282;28;1887;-69
2023/06/04 07:35:07;;;;;;;;;;;19.00;59.00;;;;;;5033906;28;1329;-70
2023/06/04 07:37:32;;;;;;;;;;;19.00;59.30;;;;;;5033898;28;802;-69
2023/06/04 07:39:58;;;;;;;;;;;19.00;59.20;;;;;;5033903;28;880;-69
2023/06/04 07:42:23;;;;;;;;;;;19.00;59.40;;;;;;5035585;28;1274;-70
2023/06/04 07:44:49;;;;;;;;;;;19.00;59.50;;;;;;5032307;28;1224;-70
2023/06/04 07:47:14;;;;;;;;;;;19.00;59.50;;;;;;5024692;28;847;-69
2023/06/04 07:49:40;;;;;;;;;;;19.00;59.60;;;;;;5017692;28;858;-69
2023/06/04 07:52:05;;;;;;;;;;;19.10;59.80;;;;;;5031739;28;1894;-69
2023/06/04 07:54:31;;;;;;;;;;;19.10;59.90;;;;;;5033405;28;1275;-69
2023/06/04 07:56:57;;;;;;;;;;;19.10;60.00;;;;;;5029537;28;809;-68
2023/06/04 07:59:23;;;;;;;;;;;19.10;60.00;;;;;;5032263;28;823;-69
2023/06/04 08:01:49;;;;;;;;;;;19.10;60.20;;;;;;5030609;28;832;-69
2023/06/04 08:04:15;;;;;;;;;;;19.10;60.50;;;;;;5033089;28;1259;-68
2023/06/04 08:06:41;;;;;;;;;;;19.10;60.50;;;;;;5038813;28;1472;-69
2023/06/04 08:09:09;;;;;;;;;;;19.10;60.50;;;;;;5026359;28;930;-69
2023/06/04 08:11:35;;;;;;;;;;;19.20;60.70;;;;;;5021439;28;1902;-68
2023/06/04 08:14:00;;;;;;;;;;;19.20;60.80;;;;;;5024524;28;1334;-69
2023/06/04 08:16:26;;;;;;;;;;;19.20;60.90;;;;;;5031197;28;808;-69
2023/06/04 08:18:51;;;;;;;;;;;19.20;60.90;;;;;;5032464;28;883;-68
2023/06/04 08:21:24;;;;;;;;;;;19.20;61.00;;;;;;5026615;28;1065;-69
2023/06/04 08:23:50;;;;;;;;;;;19.20;61.10;;;;;;5029825;28;1286;-69
2023/06/04 08:26:15;;;;;;;;;;;19.20;61.50;;;;;;5032774;28;816;-69
2023/06/04 08:28:41;;;;;;;;;;;19.20;61.70;;;;;;5033039;28;947;-71
2023/06/04 08:31:06;;;;;;;;;;;19.20;61.70;;;;;;5033910;28;1890;-70
2023/06/04 08:33:32;;;;;;;;;;;19.20;61.60;;;;;;5030503;28;1374;-70
2023/06/04 08:35:57;;;;;;;;;;;19.20;61.70;;;;;;5032906;28;1050;-70
2023/06/04 08:38:23;;;;;;;;;;;19.20;61.70;;;;;;5032593;28;961;-70
2023/06/04 08:40:49;;;;;;;;;;;19.20;61.80;;;;;;5031294;28;878;-69
2023/06/04 08:43:15;;;;;;;;;;;19.20;62.00;;;;;;5030663;28;1322;-70
2023/06/04 08:45:41;;;;;;;;;;;19.30;62.30;;;;;;5032421;28;848;-70
2023/06/04 08:48:08;;;;;;;;;;;19.30;62.40;;;;;;5022813;28;784;-69
2023/06/04 08:50:33;;;;;;;;;;;19.30;62.40;;;;;;5013356;28;1902;-70
2023/06/04 08:52:59;;;;;;;;;;;19.30;62.60;;;;;;5024449;28;1256;-70
2023/06/04 08:55:25;;;;;;;;;;;19.30;62.70;;;;;;5026982;28;812;-70
2023/06/04 08:57:53;;;;;;;;;;;19.30;62.80;;;;;;5033508;28;792;-71
2023/06/04 09:00:19;;;;;;;;;;;19.30;62.80;;;;;;5031944;28;1144;-70
2023/06/04 09:02:45;;;;;;;;;;;19.30;62.90;;;;;;5031973;28;1337;-70
2023/06/04 09:05:10;;;;;;;;;;;19.30;63.00;;;;;;5027948;28;829;-71
2023/06/04 09:07:36;;;;;;;;;;;19.30;63.00;;;;;;5021088;28;861;-70
2023/06/04 09:10:02;;;;;;;;;;;19.30;62.90;;;;;;5031347;28;782;-70
2023/06/04 09:12:28;;;;;;;;;;;19.40;63.00;;;;;;5031569;28;1984;-70
2023/06/04 09:14:53;;;;;;;;;;;19.30;62.90;;;;;;5024512;28;863;-70
2023/06/04 09:17:22;;;;;;;;;;;19.30;63.00;;;;;;5032885;28;966;-71
2023/06/04 09:19:48;;;;;;;;;;;19.30;63.00;;;;;;5031431;28;828;-70
2023/06/04 09:22:13;;;;;;;;;;;19.30;63.10;;;;;;5028758;28;1034;-70
2023/06/04 09:24:39;;;;;;;;;;;19.30;63.20;;;;;;5029138;28;1324;-70
2023/06/04 09:27:14;;;;;;;;;;;19.30;63.30;;;;;;5028663;28;809;-70
2023/06/04 09:29:40;;;;;;;;;;;19.40;63.50;;;;;;5031248;28;883;-71
2023/06/04 09:32:05;;;;;;;;;;;19.40;63.70;;;;;;5032265;28;1902;-71
2023/06/04 09:34:31;;;;;;;;;;;19.40;63.80;;;;;;5032476;28;1271;-70
2023/06/04 09:36:57;;;;;;;;;;;19.40;64.10;;;;;;5020285;28;1208;-70
2023/06/04 09:39:23;;;;;;;;;;;19.40;64.20;;;;;;5031876;28;853;-70
2023/06/04 09:42:00;;;;;;;;;;;19.40;64.70;;;;;;5032808;28;1004;-70
2023/06/04 09:44:26;;;;;;;;;;;19.40;65.00;;;;;;5032467;28;1274;-71
2023/06/04 09:46:57;;;;;;;;;;;19.40;65.10;;;;;;5030382;28;832;-71
2023/06/04 09:49:23;;;;;;;;;;;19.40;65.10;;;;;;5030339;28;2125;-71
2023/06/04 09:51:49;;;;;;;;;;;19.40;65.10;;;;;;5030476;28;1969;-71
2023/06/04 09:54:14;;;;;;;;;;;19.40;65.10;;;;;;5025630;28;1261;-70
2023/06/04 09:56:40;;;;;;;;;;;19.40;65.50;;;;;;5032548;28;800;-70
2023/06/04 09:59:05;;;;;;;;;;;19.40;65.40;;;;;;5021754;28;823;-69
2023/06/04 10:01:31;;;;;;;;;;;19.40;65.20;;;;;;5026765;28;1049;-70
2023/06/04 10:03:57;;;;;;;;;;;19.40;65.10;;;;;;5034995;28;1345;-71
2023/06/04 10:06:23;;;;;;;;;;;19.40;65.00;;;;;;5036175;28;1888;-71
2023/06/04 10:08:49;;;;;;;;;;;19.40;64.80;;;;;;5035245;28;1238;-70
2023/06/04 10:11:15;;;;;;;;;;;19.40;64.80;;;;;;5036397;28;1983;-70
2023/06/04 10:13:43;;;;;;;;;;;19.40;65.00;;;;;;5033442;28;1539;-70
2023/06/04 10:16:08;;;;;;;;;;;19.40;65.00;;;;;;5028763;28;2141;-70
2023/06/04 10:18:34;;;;;;;;;;;19.40;66.10;;;;;;5036040;28;1745;-70
2023/06/04 10:20:59;;;;;;;;;;;19.40;66.00;;;;;;5034885;28;1270;-70
2023/06/04 10:23:25;;;;;;;;;;;19.50;65.80;;;;;;5036259;28;1357;-70
2023/06/04 10:25:52;;;;;;;;;;;19.50;65.60;;;;;;5036450;28;820;-71
2023/06/04 10:28:20;;;;;;;;;;;19.50;65.40;;;;;;5034836;28;824;-70
2023/06/04 10:30:46;;;;;;;;;;;19.50;65.70;;;;;;5034941;28;1959;-70
2023/06/04 10:33:13;;;;;;;;;;;19.50;65.70;;;;;;5036508;28;1296;-71
2023/06/04 10:35:38;;;;;;;;;;;19.50;65.60;;;;;;5036647;28;856;-70
2023/06/04 10:38:10;;;;;;;;;;;19.40;65.40;;;;;;5031416;28;796;-70
2023/06/04 10:40:36;;;;;;;;;;;19.50;65.40;;;;;;5035104;28;813;-70
2023/06/04 10:43:05;;;;;;;;;;;19.50;65.60;;;;;;5035717;28;1387;-70
2023/06/04 10:45:30;;;;;;;;;;;19.50;65.70;;;;;;5031643;28;1726;-70
2023/06/04 10:48:05;;;;;;;;;;;19.50;65.80;;;;;;5035607;28;1323;-70
2023/06/04 10:50:31;;;;;;;;;;;19.50;65.90;;;;;;5029911;28;1969;-71
2023/06/04 10:52:58;;;;;;;;;;;19.50;66.20;;;;;;5032695;28;1958;-71
2023/06/04 10:55:24;;;;;;;;;;;19.40;65.90;;;;;;5035824;28;812;-70
2023/06/04 10:57:59;;;;;;;;;;;19.50;65.80;;;;;;5034798;28;800;-71
2023/06/04 11:00:41;;;;;;;;;;;19.50;65.80;;;;;;5032089;28;812;-70
2023/06/04 11:03:07;;;;;;;;;;;19.50;65.90;;;;;;5029214;28;1766;-70
2023/06/04 11:05:36;;;;;;;;;;;19.50;66.00;;;;;;5027292;28;2170;-68
2023/06/04 11:08:02;;;;;;;;;;;19.50;66.00;;;;;;5033213;28;891;-69
2023/06/04 11:10:32;;;;;;;;;;;19.50;66.20;;;;;;5033788;28;1252;-68
2023/06/04 11:12:57;;;;;;;;;;;19.50;66.40;;;;;;5029812;28;1389;-69
2023/06/04 11:15:23;;;;;;;;;;;19.50;67.20;;;;;;5034104;28;1228;-69
2023/06/04 11:17:52;;;;;;;;;;;19.50;67.60;;;;;;5029614;28;892;-69
2023/06/04 11:20:18;;;;;;;;;;;19.50;67.50;;;;;;5032232;28;836;-69
2023/06/04 11:22:50;;;;;;;;;;;19.50;67.70;;;;;;5034734;28;1355;-69
2023/06/04 11:25:15;;;;;;;;;;;19.50;67.50;;;;;;5026699;28;895;-69
2023/06/04 11:27:41;;;;;;;;;;;19.50;67.70;;;;;;5031771;28;939;-69
2023/06/04 11:30:07;;;;;;;;;;;19.50;67.60;;;;;;5033099;28;831;-69
2023/06/04 11:32:32;;;;;;;;;;;19.50;67.60;;;;;;5032274;28;1967;-69
2023/06/04 11:35:07;;;;;;;;;;;19.60;67.70;;;;;;5032595;28;996;-69
2023/06/04 11:37:33;;;;;;;;;;;19.50;67.70;;;;;;5030614;28;903;-69
2023/06/04 11:40:00;;;;;;;;;;;19.50;67.70;;;;;;5030699;28;829;-69
2023/06/04 11:42:29;;;;;;;;;;;19.50;67.60;;;;;;5029919;28;1345;-69
2023/06/04 11:44:57;;;;;;;;;;;19.50;67.60;;;;;;5030836;28;887;-69
2023/06/04 11:47:23;;;;;;;;;;;19.50;67.60;;;;;;5028628;28;943;-69
2023/06/04 11:49:52;;;;;;;;;;;19.50;67.70;;;;;;5028087;28;781;-69
2023/06/04 11:52:18;;;;;;;;;;;19.50;67.70;;;;;;5029596;28;1906;-69
2023/06/04 11:54:43;;;;;;;;;;;19.60;67.70;;;;;;5028597;28;1361;-69
2023/06/04 11:57:09;;;;;;;;;;;19.60;67.70;;;;;;5025311;28;924;-68
2023/06/04 11:59:34;;;;;;;;;;;19.60;67.60;;;;;;5027963;28;849;-68
2023/06/04 12:02:00;;;;;;;;;;;19.60;67.70;;;;;;5032492;28;874;-70
2023/06/04 12:04:29;;;;;;;;;;;19.60;68.20;;;;;;5029093;28;1247;-70
2023/06/04 12:06:56;;;;;;;;;;;19.60;67.50;;;;;;5029840;28;1057;-69
2023/06/04 12:09:28;;;;;;;;;;;19.60;65.70;;;;;;5030380;28;2120;-70
2023/06/04 12:12:03;;;;;;;;;;;19.50;64.10;;;;;;5027415;28;2025;-69
2023/06/04 12:14:29;;;;;;;;;;;19.50;63.00;;;;;;5028026;28;1497;-70
2023/06/04 12:16:55;;;;;;;;;;;19.50;63.20;;;;;;5028192;28;1340;-70
2023/06/04 12:19:21;;;;;;;;;;;19.50;62.20;;;;;;5030005;28;891;-70
2023/06/04 12:21:46;;;;;;;;;;;19.50;61.90;;;;;;5028573;28;883;-70
2023/06/04 12:24:13;;;;;;;;;;;19.40;61.70;;;;;;5029538;28;1347;-70
2023/06/04 12:26:40;;;;;;;;;;;19.40;61.40;;;;;;5023278;28;990;-70
2023/06/04 12:29:13;;;;;;;;;;;19.40;61.30;;;;;;5029643;28;859;-70
2023/06/04 12:31:39;;;;;;;;;;;19.40;61.20;;;;;;5040958;28;1910;-70
2023/06/04 12:34:04;;;;;;;;;;;19.40;61.00;;;;;;5025713;28;1501;-70
2023/06/04 12:36:30;;;;;;;;;;;19.40;60.90;;;;;;5029407;28;1464;-70
2023/06/04 12:38:59;;;;;;;;;;;19.40;60.90;;;;;;5029774;28;1171;-70
2023/06/04 12:41:25;;;;;;;;;;;19.40;60.90;;;;;;5028219;28;893;-70
2023/06/04 12:43:50;;;;;;;;;;;19.40;60.70;;;;;;5030088;28;1293;-70
2023/06/04 12:46:16;;;;;;;;;;;19.30;60.50;;;;;;5029975;28;954;-70
2023/06/04 12:48:41;;;;;;;;;;;19.30;61.00;;;;;;5030080;28;1070;-70
2023/06/04 12:51:08;;;;;;;;;;;19.30;60.20;;;;;;5029172;28;1898;-69
2023/06/04 12:53:33;;;;;;;;;;;19.30;60.10;;;;;;5028581;28;2064;-70
2023/06/04 12:55:59;;;;;;;;;;;19.30;59.90;;;;;;5027503;28;1917;-69
2023/06/04 12:58:24;;;;;;;;;;;19.30;59.80;;;;;;5028696;28;1374;-68
2023/06/04 13:00:50;;;;;;;;;;;19.30;59.70;;;;;;5030985;28;955;-70
2023/06/04 13:03:15;;;;;;;;;;;19.30;59.50;;;;;;5030786;28;1221;-69
2023/06/04 13:05:41;;;;;;;;;;;19.20;59.50;;;;;;5027418;28;1322;-68
2023/06/04 13:08:06;;;;;;;;;;;19.20;59.50;;;;;;5025388;28;1387;-70
2023/06/04 13:10:32;;;;;;;;;;;19.30;59.60;;;;;;5025312;28;1330;-68
2023/06/04 13:12:57;;;;;;;;;;;19.20;59.40;;;;;;5022242;28;1906;-69
2023/06/04 13:15:25;;;;;;;;;;;19.30;59.40;;;;;;5027645;28;1367;-68
2023/06/04 13:17:50;;;;;;;;;;;19.20;59.40;;;;;;5025514;28;1599;-68
2023/06/04 13:20:15;;;;;;;;;;;19.30;59.50;;;;;;5026365;28;1188;-67
2023/06/04 13:22:43;;;;;;;;;;;19.30;58.90;;;;;;5027192;28;1240;-68
2023/06/04 13:25:09;;;;;;;;;;;19.20;59.00;;;;;;5029417;28;821;-68
2023/06/04 13:27:34;;;;;;;;;;;19.30;59.10;;;;;;5025901;28;851;-70
2023/06/04 13:30:00;;;;;;;;;;;19.20;58.90;;;;;;5025253;28;809;-70
2023/06/04 13:32:25;;;;;;;;;;;19.20;58.80;;;;;;5028180;28;2008;-71
2023/06/04 13:37:54;;;;;;;;;;;19.20;58.80;;;;;;5027100;28;1386;-70
2023/06/04 13:40:19;;;;;;;;;;;19.20;58.40;;;;;;5025278;28;1034;-68
2023/06/04 13:42:45;;;;;;;;;;;19.20;58.50;;;;;;5042690;28;1383;-71
2023/06/04 13:45:10;;;;;;;;;;;19.20;58.60;;;;;;5013406;28;1390;-68
2023/06/04 13:47:36;;;;;;;;;;;19.20;58.70;;;;;;5026164;28;994;-70
2023/06/04 13:50:02;;;;;;;;;;;19.20;58.70;;;;;;5028166;28;924;-70
2023/06/04 13:52:28;;;;;;;;;;;19.20;58.50;;;;;;5028392;28;1926;-68
2023/06/04 13:54:54;;;;;;;;;;;19.20;58.60;;;;;;5028013;28;827;-68
2023/06/04 13:57:20;;;;;;;;;;;19.20;58.60;;;;;;5023431;28;851;-67
2023/06/04 13:59:45;;;;;;;;;;;19.20;58.50;;;;;;5025604;28;813;-70
2023/06/04 14:02:11;;;;;;;;;;;19.20;58.00;;;;;;5028287;28;792;-68
2023/06/04 14:04:36;;;;;;;;;;;19.30;58.00;;;;;;5027698;28;1254;-68
2023/06/04 14:07:02;;;;;;;;;;;19.20;58.20;;;;;;5027689;28;888;-70
2023/06/04 14:09:27;;;;;;;;;;;19.20;58.30;;;;;;5025687;28;867;-70
2023/06/04 14:11:54;;;;;;;;;;;19.20;58.40;;;;;;5024796;28;1910;-69
2023/06/04 14:14:20;;;;;;;;;;;19.20;58.40;;;;;;5027914;28;1313;-70
2023/06/04 14:16:46;;;;;;;;;;;19.20;58.80;;;;;;5028004;28;870;-70
2023/06/04 14:19:12;;;;;;;;;;;19.20;58.70;;;;;;5028816;28;876;-70
2023/06/04 14:21:37;;;;;;;;;;;19.20;58.70;;;;;;5026383;28;821;-68
2023/06/04 14:24:03;;;;;;;;;;;19.20;58.60;;;;;;5027385;28;1213;-70
2023/06/04 14:26:29;;;;;;;;;;;19.20;58.40;;;;;;5026433;28;872;-70
2023/06/04 14:28:54;;;;;;;;;;;19.20;58.10;;;;;;5011475;28;1269;-70
2023/06/04 14:31:20;;;;;;;;;;;19.20;58.20;;;;;;5025237;28;1967;-71
2023/06/04 14:33:45;;;;;;;;;;;19.20;57.80;;;;;;5027876;28;1420;-69